sensor_id;sensor_type;location;lat;lon;timestamp;pressure;altitude;pressure_sealevel;temperature;humidity
15750;BME280;7976;52.526;13.326;2023-05-11T00:01:13;100914.41;;;16.90;78.44
15750;BME280;7976;52.526;13.326;2023-05-11T00:03:40;100909.31;;;16.87;78.58
15750;BME280;7976;52.526;13.326;2023-05-11T00:06:08;100911.19;;;16.85;78.50
15750;BME280;7976;52.526;13.326;2023-05-11T00:08:35;100913.06;;;16.83;78.60
15750;BME280;7976;52.526;13.326;2023-05-11T00:11:06;100899.28;;;16.78;79.06
15750;BME280;7976;52.526;13.326;2023-05-11T00:13:33;100909.09;;;16.76;78.99
15750;BME280;7976;52.526;13.326;2023-05-11T00:16:00;100908.47;;;16.73;79.13
15750;BME280;7976;52.526;13.326;2023-05-11T00:18:28;100911.16;;;16.71;78.96
15750;BME280;7976;52.526;13.326;2023-05-11T00:20:54;100911.25;;;16.70;79.14
15750;BME280;7976;52.526;13.326;2023-05-11T00:23:23;100909.75;;;16.66;79.42
15750;BME280;7976;52.526;13.326;2023-05-11T00:25:50;100903.81;;;16.62;79.57
15750;BME280;7976;52.526;13.326;2023-05-11T00:28:17;100901.34;;;16.59;79.61
15750;BME280;7976;52.526;13.326;2023-05-11T00:30:43;100911.16;;;16.57;79.96
15750;BME280;7976;52.526;13.326;2023-05-11T00:33:10;100906.97;;;16.53;79.98
15750;BME280;7976;52.526;13.326;2023-05-11T00:35:37;100902.66;;;16.52;80.04
15750;BME280;7976;52.526;13.326;2023-05-11T00:38:04;100905.38;;;16.51;80.04
15750;BME280;7976;52.526;13.326;2023-05-11T00:40:32;100903.84;;;16.47;80.00
15750;BME280;7976;52.526;13.326;2023-05-11T00:42:59;100903.13;;;16.43;80.13
15750;BME280;7976;52.526;13.326;2023-05-11T00:45:27;100895.41;;;16.40;80.01
15750;BME280;7976;52.526;13.326;2023-05-11T00:47:54;100898.22;;;16.37;80.59
15750;BME280;7976;52.526;13.326;2023-05-11T00:50:20;100902.06;;;16.31;80.46
15750;BME280;7976;52.526;13.326;2023-05-11T00:52:47;100909.22;;;16.29;80.57
15750;BME280;7976;52.526;13.326;2023-05-11T00:55:18;100908.53;;;16.26;80.63
15750;BME280;7976;52.526;13.326;2023-05-11T00:57:47;100904.41;;;16.22;80.58
15750;BME280;7976;52.526;13.326;2023-05-11T01:00:14;100912.41;;;16.20;80.68
15750;BME280;7976;52.526;13.326;2023-05-11T01:02:41;100912.59;;;16.17;80.99
15750;BME280;7976;52.526;13.326;2023-05-11T01:05:09;100909.19;;;16.15;81.10
15750;BME280;7976;52.526;13.326;2023-05-11T01:07:44;100910.19;;;16.13;80.96
15750;BME280;7976;52.526;13.326;2023-05-11T01:10:23;100906.88;;;16.09;81.01
15750;BME280;7976;52.526;13.326;2023-05-11T01:13:06;100906.13;;;16.07;81.42
15750;BME280;7976;52.526;13.326;2023-05-11T01:15:49;100913.47;;;16.02;81.29
15750;BME280;7976;52.526;13.326;2023-05-11T01:18:25;100912.69;;;16.00;81.11
15750;BME280;7976;52.526;13.326;2023-05-11T01:21:01;100902.22;;;15.99;81.42
15750;BME280;7976;52.526;13.326;2023-05-11T01:23:44;100907.75;;;15.94;81.61
15750;BME280;7976;52.526;13.326;2023-05-11T01:26:34;100910.66;;;15.90;81.60
15750;BME280;7976;52.526;13.326;2023-05-11T01:29:45;100918.66;;;15.88;81.71
15750;BME280;7976;52.526;13.326;2023-05-11T01:32:21;100911.00;;;15.84;81.62
15750;BME280;7976;52.526;13.326;2023-05-11T01:34:59;100919.06;;;15.81;81.94
15750;BME280;7976;52.526;13.326;2023-05-11T01:37:31;100919.34;;;15.76;81.98
15750;BME280;7976;52.526;13.326;2023-05-11T01:40:02;100923.84;;;15.74;82.26
15750;BME280;7976;52.526;13.326;2023-05-11T01:42:37;100912.47;;;15.74;82.31
15750;BME280;7976;52.526;13.326;2023-05-11T01:45:07;100912.47;;;15.74;82.31
15750;BME280;7976;52.526;13.326;2023-05-11T01:47:39;100917.75;;;15.74;82.34
15750;BME280;7976;52.526;13.326;2023-05-11T01:50:08;100927.44;;;15.73;82.33
15750;BME280;7976;52.526;13.326;2023-05-11T01:52:38;100926.75;;;15.70;82.58
15750;BME280;7976;52.526;13.326;2023-05-11T01:55:08;100927.94;;;15.64;82.67
15750;BME280;7976;52.526;13.326;2023-05-11T01:57:37;100935.16;;;15.61;82.83
15750;BME280;7976;52.526;13.326;2023-05-11T02:00:07;100926.59;;;15.57;83.02
15750;BME280;7976;52.526;13.326;2023-05-11T02:02:43;100928.38;;;15.57;83.32
15750;BME280;7976;52.526;13.326;2023-05-11T02:05:17;100936.38;;;15.55;83.19
15750;BME280;7976;52.526;13.326;2023-05-11T02:07:46;100940.88;;;15.53;83.17
15750;BME280;7976;52.526;13.326;2023-05-11T02:10:17;100938.22;;;15.53;83.56
15750;BME280;7976;52.526;13.326;2023-05-11T02:12:45;100941.56;;;15.57;83.29
15750;BME280;7976;52.526;13.326;2023-05-11T02:15:19;100940.59;;;15.58;83.10
15750;BME280;7976;52.526;13.326;2023-05-11T02:17:50;100944.09;;;15.58;83.00
15750;BME280;7976;52.526;13.326;2023-05-11T02:20:19;100944.97;;;15.59;82.91
15750;BME280;7976;52.526;13.326;2023-05-11T02:22:48;100944.97;;;15.59;83.02
15750;BME280;7976;52.526;13.326;2023-05-11T02:25:17;100942.25;;;15.60;83.06
15750;BME280;7976;52.526;13.326;2023-05-11T02:27:44;100942.16;;;15.62;82.75
15750;BME280;7976;52.526;13.326;2023-05-11T02:30:12;100944.03;;;15.60;82.80
15750;BME280;7976;52.526;13.326;2023-05-11T02:32:50;100943.25;;;15.58;82.84
15750;BME280;7976;52.526;13.326;2023-05-11T02:35:23;100945.97;;;15.56;82.99
15750;BME280;7976;52.526;13.326;2023-05-11T02:37:57;100952.19;;;15.55;83.02
15750;BME280;7976;52.526;13.326;2023-05-11T02:40:32;100953.19;;;15.53;83.36
15750;BME280;7976;52.526;13.326;2023-05-11T02:43:08;100952.41;;;15.51;83.01
15750;BME280;7976;52.526;13.326;2023-05-11T02:45:42;100957.03;;;15.47;83.18
15750;BME280;7976;52.526;13.326;2023-05-11T02:48:20;100948.53;;;15.42;83.32
15750;BME280;7976;52.526;13.326;2023-05-11T02:50:54;100944.38;;;15.37;83.31
15750;BME280;7976;52.526;13.326;2023-05-11T02:53:27;100944.47;;;15.35;83.30
15750;BME280;7976;52.526;13.326;2023-05-11T02:55:54;100950.81;;;15.31;83.19
15750;BME280;7976;52.526;13.326;2023-05-11T02:58:22;100946.72;;;15.26;82.80
15750;BME280;7976;52.526;13.326;2023-05-11T03:00:57;100946.97;;;15.21;82.69
15750;BME280;7976;52.526;13.326;2023-05-11T03:03:25;100952.50;;;15.17;82.35
15750;BME280;7976;52.526;13.326;2023-05-11T03:05:52;100953.50;;;15.14;82.14
15750;BME280;7976;52.526;13.326;2023-05-11T03:08:19;100947.53;;;15.10;81.42
15750;BME280;7976;52.526;13.326;2023-05-11T03:10:47;100942.44;;;15.07;80.95
15750;BME280;7976;52.526;13.326;2023-05-11T03:13:14;100957.38;;;15.07;80.68
15750;BME280;7976;52.526;13.326;2023-05-11T03:15:42;100958.41;;;15.04;79.72
15750;BME280;7976;52.526;13.326;2023-05-11T03:18:12;100954.09;;;15.03;79.35
15750;BME280;7976;52.526;13.326;2023-05-11T03:20:43;100948.84;;;15.02;78.73
15750;BME280;7976;52.526;13.326;2023-05-11T03:23:11;100954.28;;;14.99;78.30
15750;BME280;7976;52.526;13.326;2023-05-11T03:25:40;100952.59;;;14.98;78.02
15750;BME280;7976;52.526;13.326;2023-05-11T03:28:11;100950.13;;;14.95;78.01
15750;BME280;7976;52.526;13.326;2023-05-11T03:30:44;100951.13;;;14.92;77.75
15750;BME280;7976;52.526;13.326;2023-05-11T03:33:12;100948.56;;;14.91;77.56
15750;BME280;7976;52.526;13.326;2023-05-11T03:35:42;100944.16;;;14.91;77.69
15750;BME280;7976;52.526;13.326;2023-05-11T03:38:15;100958.88;;;14.95;77.59
15750;BME280;7976;52.526;13.326;2023-05-11T03:40:43;100952.78;;;14.95;77.30
15750;BME280;7976;52.526;13.326;2023-05-11T03:43:15;100955.41;;;14.95;76.98
15750;BME280;7976;52.526;13.326;2023-05-11T03:45:47;100955.63;;;14.90;76.97
15750;BME280;7976;52.526;13.326;2023-05-11T03:48:17;100949.66;;;14.87;76.78
15750;BME280;7976;52.526;13.326;2023-05-11T03:50:47;100950.69;;;14.84;77.06
15750;BME280;7976;52.526;13.326;2023-05-11T03:53:15;100957.63;;;14.85;76.68
15750;BME280;7976;52.526;13.326;2023-05-11T03:55:42;100955.94;;;14.84;76.72
15750;BME280;7976;52.526;13.326;2023-05-11T03:58:09;100952.69;;;14.79;76.37
15750;BME280;7976;52.526;13.326;2023-05-11T04:00:38;100955.50;;;14.76;76.46
15750;BME280;7976;52.526;13.326;2023-05-11T04:03:05;100957.44;;;14.73;76.23
15750;BME280;7976;52.526;13.326;2023-05-11T04:05:32;100952.06;;;14.74;75.79
15750;BME280;7976;52.526;13.326;2023-05-11T04:08:03;100953.78;;;14.75;75.86
15750;BME280;7976;52.526;13.326;2023-05-11T04:10:30;100953.94;;;14.72;75.67
15750;BME280;7976;52.526;13.326;2023-05-11T04:12:57;100954.78;;;14.73;75.09
15750;BME280;7976;52.526;13.326;2023-05-11T04:15:24;100947.75;;;14.73;74.78
15750;BME280;7976;52.526;13.326;2023-05-11T04:17:51;100963.47;;;14.75;74.71
15750;BME280;7976;52.526;13.326;2023-05-11T04:20:18;100955.50;;;14.76;74.25
15750;BME280;7976;52.526;13.326;2023-05-11T04:22:44;100960.75;;;14.76;74.10
15750;BME280;7976;52.526;13.326;2023-05-11T04:25:12;100962.47;;;14.77;73.57
15750;BME280;7976;52.526;13.326;2023-05-11T04:27:39;100964.19;;;14.78;73.94
15750;BME280;7976;52.526;13.326;2023-05-11T04:30:08;100962.38;;;14.79;73.19
15750;BME280;7976;52.526;13.326;2023-05-11T04:32:35;100967.47;;;14.82;73.20
15750;BME280;7976;52.526;13.326;2023-05-11T04:35:01;100976.09;;;14.85;73.22
15750;BME280;7976;52.526;13.326;2023-05-11T04:37:32;100971.44;;;14.90;73.08
15750;BME280;7976;52.526;13.326;2023-05-11T04:40:01;100970.44;;;14.93;72.79
15750;BME280;7976;52.526;13.326;2023-05-11T04:42:34;100966.78;;;14.95;72.28
15750;BME280;7976;52.526;13.326;2023-05-11T04:45:04;100968.34;;;14.99;72.30
15750;BME280;7976;52.526;13.326;2023-05-11T04:47:31;100980.34;;;15.05;72.03
15750;BME280;7976;52.526;13.326;2023-05-11T04:49:58;100984.53;;;15.09;71.78
15750;BME280;7976;52.526;13.326;2023-05-11T04:52:25;100989.59;;;15.14;71.52
15750;BME280;7976;52.526;13.326;2023-05-11T04:54:52;100983.38;;;15.15;71.24
15750;BME280;7976;52.526;13.326;2023-05-11T04:57:19;100977.16;;;15.16;71.21
15750;BME280;7976;52.526;13.326;2023-05-11T04:59:48;100991.09;;;15.18;71.03
15750;BME280;7976;52.526;13.326;2023-05-11T05:02:15;100983.97;;;15.20;70.47
15750;BME280;7976;52.526;13.326;2023-05-11T05:04:42;100988.16;;;15.24;70.16
15750;BME280;7976;52.526;13.326;2023-05-11T05:07:09;100989.78;;;15.26;70.05
15750;BME280;7976;52.526;13.326;2023-05-11T05:09:37;100997.44;;;15.31;69.83
15750;BME280;7976;52.526;13.326;2023-05-11T05:12:05;100990.13;;;15.36;69.97
15750;BME280;7976;52.526;13.326;2023-05-11T05:14:32;100985.44;;;15.42;69.54
15750;BME280;7976;52.526;13.326;2023-05-11T05:17:00;100987.84;;;15.47;69.45
15750;BME280;7976;52.526;13.326;2023-05-11T05:19:27;100993.72;;;15.52;69.33
15750;BME280;7976;52.526;13.326;2023-05-11T05:21:55;100995.25;;;15.56;68.81
15750;BME280;7976;52.526;13.326;2023-05-11T05:24:21;100990.66;;;15.59;68.62
15750;BME280;7976;52.526;13.326;2023-05-11T05:26:48;100986.94;;;15.63;68.52
15750;BME280;7976;52.526;13.326;2023-05-11T05:29:15;100998.09;;;15.68;68.31
15750;BME280;7976;52.526;13.326;2023-05-11T05:31:42;100994.41;;;15.71;68.26
15750;BME280;7976;52.526;13.326;2023-05-11T05:34:11;100994.38;;;15.72;67.64
15750;BME280;7976;52.526;13.326;2023-05-11T05:36:37;100998.53;;;15.76;67.60
15750;BME280;7976;52.526;13.326;2023-05-11T05:39:04;100993.94;;;15.80;67.20
15750;BME280;7976;52.526;13.326;2023-05-11T05:41:35;100998.84;;;15.86;67.08
15750;BME280;7976;52.526;13.326;2023-05-11T05:44:04;100999.53;;;15.89;67.03
15750;BME280;7976;52.526;13.326;2023-05-11T05:46:31;101002.88;;;15.93;67.11
15750;BME280;7976;52.526;13.326;2023-05-11T05:48:58;101008.75;;;15.98;66.82
15750;BME280;7976;52.526;13.326;2023-05-11T05:51:26;101005.03;;;16.02;66.72
15750;BME280;7976;52.526;13.326;2023-05-11T05:53:53;101012.59;;;16.08;66.10
15750;BME280;7976;52.526;13.326;2023-05-11T05:56:21;101014.13;;;16.12;66.04
15750;BME280;7976;52.526;13.326;2023-05-11T05:58:47;101015.06;;;16.11;65.56
15750;BME280;7976;52.526;13.326;2023-05-11T06:01:14;101023.75;;;16.13;65.74
15750;BME280;7976;52.526;13.326;2023-05-11T06:03:41;101024.25;;;16.19;66.04
15750;BME280;7976;52.526;13.326;2023-05-11T06:06:09;101023.06;;;16.25;65.67
15750;BME280;7976;52.526;13.326;2023-05-11T06:08:38;101018.22;;;16.33;65.87
15750;BME280;7976;52.526;13.326;2023-05-11T06:11:05;101025.72;;;16.41;65.49
15750;BME280;7976;52.526;13.326;2023-05-11T06:13:31;101029.81;;;16.46;65.31
15750;BME280;7976;52.526;13.326;2023-05-11T06:15:59;101030.34;;;16.53;65.10
15750;BME280;7976;52.526;13.326;2023-05-11T06:18:31;101031.84;;;16.57;64.94
15750;BME280;7976;52.526;13.326;2023-05-11T06:20:59;101035.94;;;16.62;64.80
15750;BME280;7976;52.526;13.326;2023-05-11T06:23:28;101025.00;;;16.68;64.81
15750;BME280;7976;52.526;13.326;2023-05-11T06:25:57;101033.44;;;16.75;64.49
15750;BME280;7976;52.526;13.326;2023-05-11T06:28:25;101032.91;;;16.84;63.83
15750;BME280;7976;52.526;13.326;2023-05-11T06:30:57;101034.84;;;16.96;63.21
15750;BME280;7976;52.526;13.326;2023-05-11T06:33:26;101020.97;;;17.06;62.88
15750;BME280;7976;52.526;13.326;2023-05-11T06:35:54;101025.63;;;17.17;62.76
15750;BME280;7976;52.526;13.326;2023-05-11T06:38:21;101031.06;;;17.29;62.36
15750;BME280;7976;52.526;13.326;2023-05-11T06:40:51;101032.09;;;17.41;61.79
15750;BME280;7976;52.526;13.326;2023-05-11T06:43:19;101022.78;;;17.49;61.42
15750;BME280;7976;52.526;13.326;2023-05-11T06:45:47;101022.41;;;17.56;60.96
15750;BME280;7976;52.526;13.326;2023-05-11T06:48:14;101027.81;;;17.68;60.61
15750;BME280;7976;52.526;13.326;2023-05-11T06:50:41;101032.22;;;17.82;60.05
15750;BME280;7976;52.526;13.326;2023-05-11T06:53:11;101027.44;;;17.88;59.64
15750;BME280;7976;52.526;13.326;2023-05-11T06:55:38;101025.97;;;17.97;59.71
15750;BME280;7976;52.526;13.326;2023-05-11T06:58:05;101028.81;;;18.08;59.00
15750;BME280;7976;52.526;13.326;2023-05-11T07:00:33;101024.41;;;18.21;58.74
15750;BME280;7976;52.526;13.326;2023-05-11T07:03:00;101030.84;;;18.31;58.24
15750;BME280;7976;52.526;13.326;2023-05-11T07:05:26;101027.63;;;18.40;57.60
15750;BME280;7976;52.526;13.326;2023-05-11T07:07:54;101029.66;;;18.49;57.45
15750;BME280;7976;52.526;13.326;2023-05-11T07:10:20;101022.09;;;18.57;57.25
15750;BME280;7976;52.526;13.326;2023-05-11T07:12:47;101027.63;;;18.66;56.98
15750;BME280;7976;52.526;13.326;2023-05-11T07:15:14;101027.66;;;18.79;56.73
15750;BME280;7976;52.526;13.326;2023-05-11T07:17:42;101029.59;;;18.90;56.18
15750;BME280;7976;52.526;13.326;2023-05-11T07:20:12;101017.53;;;18.98;55.03
15750;BME280;7976;52.526;13.326;2023-05-11T07:22:38;101020.50;;;19.06;54.86
15750;BME280;7976;52.526;13.326;2023-05-11T07:25:07;101028.59;;;19.17;54.94
15750;BME280;7976;52.526;13.326;2023-05-11T07:27:34;101031.59;;;19.25;54.52
15750;BME280;7976;52.526;13.326;2023-05-11T07:30:01;101024.94;;;19.32;53.98
15750;BME280;7976;52.526;13.326;2023-05-11T07:32:28;101034.16;;;19.39;53.87
15750;BME280;7976;52.526;13.326;2023-05-11T07:34:57;101032.66;;;19.48;53.69
15750;BME280;7976;52.526;13.326;2023-05-11T07:37:23;101027.78;;;19.54;53.82
15750;BME280;7976;52.526;13.326;2023-05-11T07:39:50;101029.28;;;19.58;53.31
15750;BME280;7976;52.526;13.326;2023-05-11T07:42:18;101019.06;;;19.65;53.52
15750;BME280;7976;52.526;13.326;2023-05-11T07:44:45;101027.25;;;19.74;53.04
15750;BME280;7976;52.526;13.326;2023-05-11T07:47:12;101025.22;;;19.78;52.17
15750;BME280;7976;52.526;13.326;2023-05-11T07:49:39;101029.03;;;19.86;52.52
15750;BME280;7976;52.526;13.326;2023-05-11T07:52:07;101025.00;;;19.93;52.27
15750;BME280;7976;52.526;13.326;2023-05-11T07:54:34;101029.84;;;19.99;52.22
15750;BME280;7976;52.526;13.326;2023-05-11T07:57:01;101024.13;;;20.06;52.01
15750;BME280;7976;52.526;13.326;2023-05-11T07:59:28;101020.25;;;20.10;51.30
15750;BME280;7976;52.526;13.326;2023-05-11T08:01:55;101030.28;;;20.19;51.09
15750;BME280;7976;52.526;13.326;2023-05-11T08:04:22;101024.06;;;20.31;51.69
15750;BME280;7976;52.526;13.326;2023-05-11T08:06:49;101022.75;;;20.36;50.57
15750;BME280;7976;52.526;13.326;2023-05-11T08:09:17;101023.19;;;20.43;50.76
15750;BME280;7976;52.526;13.326;2023-05-11T08:11:44;101027.81;;;20.52;49.77
15750;BME280;7976;52.526;13.326;2023-05-11T08:14:11;101017.44;;;20.60;49.79
15750;BME280;7976;52.526;13.326;2023-05-11T08:16:38;101025.63;;;20.69;49.70
15750;BME280;7976;52.526;13.326;2023-05-11T08:19:04;101022.38;;;20.77;49.73
15750;BME280;7976;52.526;13.326;2023-05-11T08:21:32;101024.47;;;20.84;49.76
15750;BME280;7976;52.526;13.326;2023-05-11T08:23:58;101027.00;;;20.86;49.10
15750;BME280;7976;52.526;13.326;2023-05-11T08:26:26;101022.44;;;20.88;48.69
15750;BME280;7976;52.526;13.326;2023-05-11T08:28:53;101015.41;;;20.87;48.24
15750;BME280;7976;52.526;13.326;2023-05-11T08:31:20;101016.13;;;20.89;47.87
15750;BME280;7976;52.526;13.326;2023-05-11T08:33:47;101028.25;;;20.93;47.94
15750;BME280;7976;52.526;13.326;2023-05-11T08:36:14;101020.41;;;20.91;47.63
15750;BME280;7976;52.526;13.326;2023-05-11T08:38:41;101013.47;;;20.89;47.29
15750;BME280;7976;52.526;13.326;2023-05-11T08:41:10;101013.72;;;20.97;47.44
15750;BME280;7976;52.526;13.326;2023-05-11T08:43:40;101014.44;;;21.11;47.24
15750;BME280;7976;52.526;13.326;2023-05-11T08:46:08;101024.00;;;21.25;47.21
15750;BME280;7976;52.526;13.326;2023-05-11T08:48:36;101015.06;;;21.37;47.04
15750;BME280;7976;52.526;13.326;2023-05-11T08:51:04;101011.47;;;21.49;47.07
15750;BME280;7976;52.526;13.326;2023-05-11T08:53:32;101007.97;;;21.60;47.00
15750;BME280;7976;52.526;13.326;2023-05-11T08:56:00;101019.72;;;21.68;46.69
15750;BME280;7976;52.526;13.326;2023-05-11T08:58:33;101005.19;;;21.61;46.32
15750;BME280;7976;52.526;13.326;2023-05-11T09:01:04;101008.78;;;21.60;46.04
15750;BME280;7976;52.526;13.326;2023-05-11T09:03:34;101011.72;;;21.68;45.94
15750;BME280;7976;52.526;13.326;2023-05-11T09:06:03;101005.56;;;21.79;45.55
15750;BME280;7976;52.526;13.326;2023-05-11T09:08:34;101009.06;;;21.90;45.28
15750;BME280;7976;52.526;13.326;2023-05-11T09:11:02;101002.03;;;22.00;45.49
15750;BME280;7976;52.526;13.326;2023-05-11T09:13:29;101010.03;;;22.11;45.51
15750;BME280;7976;52.526;13.326;2023-05-11T09:15:57;100998.59;;;22.20;44.67
15750;BME280;7976;52.526;13.326;2023-05-11T09:18:25;101010.47;;;22.27;44.77
15750;BME280;7976;52.526;13.326;2023-05-11T09:20:52;101002.94;;;22.32;44.75
15750;BME280;7976;52.526;13.326;2023-05-11T09:23:24;101002.94;;;22.44;44.16
15750;BME280;7976;52.526;13.326;2023-05-11T09:25:52;101010.16;;;22.53;44.19
15750;BME280;7976;52.526;13.326;2023-05-11T09:28:20;101002.41;;;22.61;43.68
15750;BME280;7976;52.526;13.326;2023-05-11T09:30:47;100992.91;;;22.68;43.44
15750;BME280;7976;52.526;13.326;2023-05-11T09:33:21;101014.72;;;22.73;43.25
15750;BME280;7976;52.526;13.326;2023-05-11T09:35:51;101000.16;;;22.77;43.53
15750;BME280;7976;52.526;13.326;2023-05-11T09:38:19;101005.09;;;22.81;43.19
15750;BME280;7976;52.526;13.326;2023-05-11T09:40:52;101007.66;;;22.83;42.24
15750;BME280;7976;52.526;13.326;2023-05-11T09:43:22;101002.03;;;22.86;42.30
15750;BME280;7976;52.526;13.326;2023-05-11T09:45:51;101008.44;;;22.74;41.95
15750;BME280;7976;52.526;13.326;2023-05-11T09:48:27;101009.72;;;22.59;41.73
15750;BME280;7976;52.526;13.326;2023-05-11T09:51:02;101004.38;;;22.59;42.03
15750;BME280;7976;52.526;13.326;2023-05-11T09:53:38;101001.81;;;22.57;41.57
15750;BME280;7976;52.526;13.326;2023-05-11T09:56:08;101006.84;;;22.71;41.61
15750;BME280;7976;52.526;13.326;2023-05-11T09:58:47;100996.47;;;22.89;40.99
15750;BME280;7976;52.526;13.326;2023-05-11T10:01:16;100993.47;;;23.03;40.91
15750;BME280;7976;52.526;13.326;2023-05-11T10:03:49;100996.09;;;23.14;40.84
15750;BME280;7976;52.526;13.326;2023-05-11T10:06:18;100994.09;;;23.27;40.81
15750;BME280;7976;52.526;13.326;2023-05-11T10:08:45;101003.00;;;23.37;40.70
15750;BME280;7976;52.526;13.326;2023-05-11T10:11:14;100982.78;;;23.44;40.01
15750;BME280;7976;52.526;13.326;2023-05-11T10:13:43;101001.69;;;23.52;39.72
15750;BME280;7976;52.526;13.326;2023-05-11T10:16:14;100999.72;;;23.54;39.06
15750;BME280;7976;52.526;13.326;2023-05-11T10:18:43;100988.91;;;23.55;39.53
15750;BME280;7976;52.526;13.326;2023-05-11T10:21:10;100989.63;;;23.58;39.38
15750;BME280;7976;52.526;13.326;2023-05-11T10:23:38;100991.28;;;23.58;39.50
15750;BME280;7976;52.526;13.326;2023-05-11T10:26:06;100986.41;;;23.64;39.59
15750;BME280;7976;52.526;13.326;2023-05-11T10:28:33;100984.31;;;23.67;39.30
15750;BME280;7976;52.526;13.326;2023-05-11T10:31:02;100982.50;;;23.77;39.59
15750;BME280;7976;52.526;13.326;2023-05-11T10:33:31;100982.69;;;23.85;38.67
15750;BME280;7976;52.526;13.326;2023-05-11T10:35:58;100983.69;;;23.94;38.39
15750;BME280;7976;52.526;13.326;2023-05-11T10:38:26;100972.84;;;23.95;38.06
15750;BME280;7976;52.526;13.326;2023-05-11T10:41:04;100984.75;;;24.02;37.97
15750;BME280;7976;52.526;13.326;2023-05-11T10:43:53;100986.31;;;24.14;37.56
15750;BME280;7976;52.526;13.326;2023-05-11T10:46:47;100987.19;;;24.24;37.44
15750;BME280;7976;52.526;13.326;2023-05-11T10:49:40;100983.94;;;24.30;36.83
15750;BME280;7976;52.526;13.326;2023-05-11T10:52:42;100986.22;;;24.44;36.34
15750;BME280;7976;52.526;13.326;2023-05-11T10:55:28;100984.13;;;24.57;36.37
15750;BME280;7976;52.526;13.326;2023-05-11T10:58:06;100982.03;;;24.51;36.65
15750;BME280;7976;52.526;13.326;2023-05-11T11:01:17;100986.75;;;24.19;36.54
15750;BME280;7976;52.526;13.326;2023-05-11T11:03:56;100975.66;;;23.84;37.30
15750;BME280;7976;52.526;13.326;2023-05-11T11:06:24;100981.91;;;23.64;37.89
15750;BME280;7976;52.526;13.326;2023-05-11T11:08:57;100974.78;;;23.44;38.09
15750;BME280;7976;52.526;13.326;2023-05-11T11:11:36;100969.50;;;23.33;39.14
15750;BME280;7976;52.526;13.326;2023-05-11T11:14:07;100981.19;;;23.32;38.88
15750;BME280;7976;52.526;13.326;2023-05-11T11:16:35;100979.50;;;23.31;38.69
15750;BME280;7976;52.526;13.326;2023-05-11T11:19:37;100976.28;;;23.37;38.88
15750;BME280;7976;52.526;13.326;2023-05-11T11:23:03;100984.16;;;23.69;38.36
15750;BME280;7976;52.526;13.326;2023-05-11T11:25:50;100979.38;;;24.02;37.83
15750;BME280;7976;52.526;13.326;2023-05-11T11:28:18;100974.25;;;24.29;37.51
15750;BME280;7976;52.526;13.326;2023-05-11T11:30:46;100973.66;;;24.45;37.32
15750;BME280;7976;52.526;13.326;2023-05-11T11:33:39;100972.00;;;24.53;37.56
15750;BME280;7976;52.526;13.326;2023-05-11T11:36:06;100966.78;;;24.52;37.63
15750;BME280;7976;52.526;13.326;2023-05-11T11:38:56;100972.00;;;24.63;37.24
15750;BME280;7976;52.526;13.326;2023-05-11T11:41:28;100974.56;;;24.74;36.63
15750;BME280;7976;52.526;13.326;2023-05-11T11:43:55;100971.03;;;24.73;36.05
15750;BME280;7976;52.526;13.326;2023-05-11T11:46:28;100982.97;;;24.50;36.66
15750;BME280;7976;52.526;13.326;2023-05-11T11:49:08;100976.88;;;24.10;36.98
15750;BME280;7976;52.526;13.326;2023-05-11T11:51:35;100977.59;;;23.82;37.78
15750;BME280;7976;52.526;13.326;2023-05-11T11:54:05;100979.88;;;23.56;38.07
15750;BME280;7976;52.526;13.326;2023-05-11T11:56:43;100990.09;;;23.42;38.27
15750;BME280;7976;52.526;13.326;2023-05-11T11:59:11;100974.84;;;23.33;37.92
15750;BME280;7976;52.526;13.326;2023-05-11T12:01:42;100983.13;;;23.30;37.70
15750;BME280;7976;52.526;13.326;2023-05-11T12:04:39;100986.06;;;23.27;37.26
15750;BME280;7976;52.526;13.326;2023-05-11T12:07:12;100985.13;;;23.17;36.89
15750;BME280;7976;52.526;13.326;2023-05-11T12:09:44;100984.72;;;23.01;37.04
15750;BME280;7976;52.526;13.326;2023-05-11T12:12:11;100985.91;;;22.87;36.93
15750;BME280;7976;52.526;13.326;2023-05-11T12:14:39;100986.34;;;22.72;37.34
15750;BME280;7976;52.526;13.326;2023-05-11T12:17:22;100986.63;;;22.58;37.91
15750;BME280;7976;52.526;13.326;2023-05-11T12:19:50;100984.47;;;22.52;38.04
15750;BME280;7976;52.526;13.326;2023-05-11T12:22:22;100990.28;;;22.46;37.71
15750;BME280;7976;52.526;13.326;2023-05-11T12:24:49;100994.91;;;22.44;37.71
15750;BME280;7976;52.526;13.326;2023-05-11T12:27:16;100993.94;;;22.45;37.57
15750;BME280;7976;52.526;13.326;2023-05-11T12:29:48;100992.59;;;22.50;37.46
15750;BME280;7976;52.526;13.326;2023-05-11T12:32:25;100993.63;;;22.70;37.64
15750;BME280;7976;52.526;13.326;2023-05-11T12:35:00;100986.38;;;22.92;37.37
15750;BME280;7976;52.526;13.326;2023-05-11T12:37:28;100991.34;;;23.17;36.89
15750;BME280;7976;52.526;13.326;2023-05-11T12:39:56;100988.00;;;23.45;36.77
15750;BME280;7976;52.526;13.326;2023-05-11T12:42:24;100980.25;;;23.73;36.56
15750;BME280;7976;52.526;13.326;2023-05-11T12:44:51;100990.84;;;23.84;36.08
15750;BME280;7976;52.526;13.326;2023-05-11T12:47:19;100997.03;;;23.84;35.59
15750;BME280;7976;52.526;13.326;2023-05-11T12:49:46;100989.41;;;23.80;35.46
15750;BME280;7976;52.526;13.326;2023-05-11T12:52:13;100996.75;;;23.78;35.68
15750;BME280;7976;52.526;13.326;2023-05-11T12:54:41;100982.78;;;23.74;35.49
15750;BME280;7976;52.526;13.326;2023-05-11T12:57:23;100982.34;;;23.69;35.26
15750;BME280;7976;52.526;13.326;2023-05-11T13:00:09;100985.47;;;23.74;35.85
15750;BME280;7976;52.526;13.326;2023-05-11T13:02:49;100985.16;;;23.68;35.53
15750;BME280;7976;52.526;13.326;2023-05-11T13:05:21;100981.72;;;23.56;35.70
15750;BME280;7976;52.526;13.326;2023-05-11T13:07:56;100981.41;;;23.49;35.56